Detall de PIREP

Printer-friendly versionPDF version

[2012/03/13 08:23:00]
Flight IATA:CT2110
Pilot Number:041
Company ICAO:CAT
Aircraft Type:DC3/A
PAX:19
Departing Airport: LEVC
Destination Airport: LEST
Alternate Airport:LECO
Online: VATSIM
Route:CENTA A33 PRADO A33 CJN A33 HORTA A33 MAGIN A33 INDEG A33 DISKO A33 ZMR A33 BARKO A33 FORNO
Flight Level:F150
No Slew and time accel
No pause
Crash detect
Detect pilot in Cockpit between each 30 and 45 minutes
08:23 Zero fuel Weight: 20550 Lbs, Fuel Weight: 4823 Lbs
08:23 VATSIM:LEVC 130800Z 00000KT CAVOK 11/04 Q1025 NOSIG
08:23 VATSIM:LEST 130730Z VRB01KT CAVOK 06/04 Q1024 NOSIG
08:23 VOICE CATALONIAN
08:28 Parking Brakes off
08:34 Take-off
08:34 Take off Weight: 25343 Lbs
08:34 Wind: 162º @ 011 Knots Heading: 295º
08:34 POS N39º 29´ 20´´ W000º 28´ 50´´
08:34 Gear Up: 108 Knots
08:49 Wind:000º@012 Knots Heading: 311º Ground Speed: 110 Knots Altitude 8461 ft
08:59 TOC
08:59 Fuel Weight: 4468 Lb
09:00 TOD
09:00 Fuel Weight: 4447 Lb
09:04 Wind:001º@020 Knots Heading: 299º Ground Speed: 168 Knots Altitude 14996 ft
09:12 TOC
09:12 Fuel Weight: 4338 Lb
09:19 Wind:001º@021 Knots Heading: 307º Ground Speed: 152 Knots Altitude 16430 ft
09:34 Wind:001º@020 Knots Heading: 305º Ground Speed: 161 Knots Altitude 15977 ft
09:49 Wind:001º@020 Knots Heading: 303º Ground Speed: 160 Knots Altitude 16033 ft
10:04 Wind:001º@019 Knots Heading: 301º Ground Speed: 165 Knots Altitude 15944 ft
10:19 Wind:001º@019 Knots Heading: 299º Ground Speed: 171 Knots Altitude 15288 ft
10:27 TOD
10:27 Fuel Weight: 3495 Lb
10:34 Wind:000º@017 Knots Heading: 308º Ground Speed: 172 Knots Altitude 11643 ft
10:49 Wind:000º@016 Knots Heading: 306º Ground Speed: 147 Knots Altitude 8487 ft
11:23 Flaps:1 at 126 Knots
11:32 Flaps:2 at 101 Knots
11:33 Flaps:3 at 92 Knots
11:34 Gear Down: 88 Knots
11:36 Flaps:4 at 87 Knots
11:39 TouchDown:Rate -203 ft/min Speed: 77 Knots
11:39 Flaps:0 at 69 Knots
11:39 VATSIM:LEST 131000Z VRB01KT CAVOK 14/06 Q1025 NOSIG
11:39 Land
11:39 Wind:354º@000 Knots
11:39 Heading: 166º
11:39 Flight Duration: 03:05
11:39 Landing Weight: 23370 Lbs
11:39 POS N42º 54´ 09´´ W008º 25´ 02´´
11:42 Parking brakes on
11:42 Block to Block Duration: 03:14
11:42 Final Fuel: 2813 Lbls
11:42 Spent Fuel: 2010 Lbls
11:42 Flight Length: 259 NM
11:42 TOD Land Length: 68 NM

Exportar CSV

Powered by Drupal - Modified by Danger4k